sensor_id;sensor_type;location;lat;lon;timestamp;temperature;humidity
44705;DHT22;30431;48.520;9.046;2022-09-16T00:01:52;11.60;99.90
44705;DHT22;30431;48.520;9.046;2022-09-16T00:04:19;11.70;99.90
44705;DHT22;30431;48.520;9.046;2022-09-16T00:06:46;11.80;99.90
44705;DHT22;30431;48.520;9.046;2022-09-16T00:09:15;11.80;99.90
44705;DHT22;30431;48.520;9.046;2022-09-16T00:11:44;11.80;99.90
44705;DHT22;30431;48.520;9.046;2022-09-16T00:14:11;11.80;99.90
44705;DHT22;30431;48.520;9.046;2022-09-16T00:16:38;11.90;99.90
44705;DHT22;30431;48.520;9.046;2022-09-16T00:19:08;12.00;99.90
44705;DHT22;30431;48.520;9.046;2022-09-16T00:21:36;12.00;99.90
44705;DHT22;30431;48.520;9.046;2022-09-16T00:24:05;12.00;99.90
44705;DHT22;30431;48.520;9.046;2022-09-16T00:26:32;11.90;99.90
44705;DHT22;30431;48.520;9.046;2022-09-16T00:29:04;11.90;99.90
44705;DHT22;30431;48.520;9.046;2022-09-16T00:31:31;11.90;99.90
44705;DHT22;30431;48.520;9.046;2022-09-16T00:33:58;11.90;99.90
44705;DHT22;30431;48.520;9.046;2022-09-16T00:36:25;11.90;99.90
44705;DHT22;30431;48.520;9.046;2022-09-16T00:38:53;11.90;99.90
44705;DHT22;30431;48.520;9.046;2022-09-16T00:41:26;11.90;99.90
44705;DHT22;30431;48.520;9.046;2022-09-16T00:43:59;12.00;99.90
44705;DHT22;30431;48.520;9.046;2022-09-16T00:46:37;12.00;99.90
44705;DHT22;30431;48.520;9.046;2022-09-16T00:49:28;12.00;99.90
44705;DHT22;30431;48.520;9.046;2022-09-16T00:52:04;11.90;99.90
44705;DHT22;30431;48.520;9.046;2022-09-16T00:54:34;11.80;99.90
44705;DHT22;30431;48.520;9.046;2022-09-16T00:57:06;11.70;99.90
44705;DHT22;30431;48.520;9.046;2022-09-16T00:59:40;11.70;99.90
44705;DHT22;30431;48.520;9.046;2022-09-16T01:02:10;11.70;99.90
44705;DHT22;30431;48.520;9.046;2022-09-16T01:04:52;11.70;99.90
44705;DHT22;30431;48.520;9.046;2022-09-16T01:10:13;11.60;99.90
44705;DHT22;30431;48.520;9.046;2022-09-16T01:12:49;11.50;99.90
44705;DHT22;30431;48.520;9.046;2022-09-16T01:15:17;11.50;99.90
44705;DHT22;30431;48.520;9.046;2022-09-16T01:37:02;11.80;99.90
44705;DHT22;30431;48.520;9.046;2022-09-16T01:39:31;11.80;99.90
44705;DHT22;30431;48.520;9.046;2022-09-16T01:56:19;11.70;99.90
44705;DHT22;30431;48.520;9.046;2022-09-16T01:58:58;11.90;99.90
44705;DHT22;30431;48.520;9.046;2022-09-16T02:01:34;11.90;99.90
44705;DHT22;30431;48.520;9.046;2022-09-16T02:04:08;12.00;99.90
44705;DHT22;30431;48.520;9.046;2022-09-16T02:06:37;12.10;99.90
44705;DHT22;30431;48.520;9.046;2022-09-16T02:09:14;12.00;99.90
44705;DHT22;30431;48.520;9.046;2022-09-16T02:11:44;12.00;99.90
44705;DHT22;30431;48.520;9.046;2022-09-16T02:14:16;12.00;99.90
44705;DHT22;30431;48.520;9.046;2022-09-16T02:16:52;12.10;99.90
44705;DHT22;30431;48.520;9.046;2022-09-16T02:19:38;12.10;99.90
44705;DHT22;30431;48.520;9.046;2022-09-16T02:22:10;12.00;99.90
44705;DHT22;30431;48.520;9.046;2022-09-16T02:24:39;11.90;99.90
44705;DHT22;30431;48.520;9.046;2022-09-16T02:27:11;11.90;99.90
44705;DHT22;30431;48.520;9.046;2022-09-16T02:29:52;11.90;99.90
44705;DHT22;30431;48.520;9.046;2022-09-16T02:32:23;11.80;99.90
44705;DHT22;30431;48.520;9.046;2022-09-16T02:34:54;11.80;99.90
44705;DHT22;30431;48.520;9.046;2022-09-16T02:39:56;11.80;99.90
44705;DHT22;30431;48.520;9.046;2022-09-16T02:42:30;11.70;99.90
44705;DHT22;30431;48.520;9.046;2022-09-16T02:44:58;11.80;99.90
44705;DHT22;30431;48.520;9.046;2022-09-16T02:47:44;11.80;99.90
44705;DHT22;30431;48.520;9.046;2022-09-16T02:50:37;11.80;99.90
44705;DHT22;30431;48.520;9.046;2022-09-16T02:56:35;11.90;99.90
44705;DHT22;30431;48.520;9.046;2022-09-16T02:59:02;11.80;99.90
44705;DHT22;30431;48.520;9.046;2022-09-16T03:01:35;11.70;99.90
44705;DHT22;30431;48.520;9.046;2022-09-16T03:04:04;11.60;99.90
44705;DHT22;30431;48.520;9.046;2022-09-16T03:06:33;11.50;99.90
44705;DHT22;30431;48.520;9.046;2022-09-16T03:09:04;11.40;99.90
44705;DHT22;30431;48.520;9.046;2022-09-16T03:11:43;11.30;99.90
44705;DHT22;30431;48.520;9.046;2022-09-16T03:31:45;11.70;99.90
44705;DHT22;30431;48.520;9.046;2022-09-16T03:34:40;11.80;99.90
44705;DHT22;30431;48.520;9.046;2022-09-16T03:37:14;11.90;99.90
44705;DHT22;30431;48.520;9.046;2022-09-16T03:39:54;11.90;99.90
44705;DHT22;30431;48.520;9.046;2022-09-16T03:42:21;12.00;99.90
44705;DHT22;30431;48.520;9.046;2022-09-16T03:44:48;12.10;99.90
44705;DHT22;30431;48.520;9.046;2022-09-16T03:47:16;12.20;99.90
44705;DHT22;30431;48.520;9.046;2022-09-16T03:49:43;12.30;99.90
44705;DHT22;30431;48.520;9.046;2022-09-16T03:52:10;12.40;99.90
44705;DHT22;30431;48.520;9.046;2022-09-16T03:54:42;12.40;99.90
44705;DHT22;30431;48.520;9.046;2022-09-16T03:57:09;12.50;99.90
44705;DHT22;30431;48.520;9.046;2022-09-16T03:59:36;12.50;99.90
44705;DHT22;30431;48.520;9.046;2022-09-16T04:02:03;12.60;99.90
44705;DHT22;30431;48.520;9.046;2022-09-16T04:04:29;12.60;99.90
44705;DHT22;30431;48.520;9.046;2022-09-16T04:06:59;12.60;99.90
44705;DHT22;30431;48.520;9.046;2022-09-16T04:09:26;12.50;99.90
44705;DHT22;30431;48.520;9.046;2022-09-16T04:11:55;12.50;99.90
44705;DHT22;30431;48.520;9.046;2022-09-16T04:14:24;12.60;99.90
44705;DHT22;30431;48.520;9.046;2022-09-16T04:16:54;12.60;99.90
44705;DHT22;30431;48.520;9.046;2022-09-16T04:19:21;12.60;99.90
44705;DHT22;30431;48.520;9.046;2022-09-16T04:21:50;12.60;99.90
44705;DHT22;30431;48.520;9.046;2022-09-16T04:24:17;12.60;99.90
44705;DHT22;30431;48.520;9.046;2022-09-16T04:26:48;12.60;99.90
44705;DHT22;30431;48.520;9.046;2022-09-16T04:29:15;12.70;99.90
44705;DHT22;30431;48.520;9.046;2022-09-16T04:31:47;12.70;99.90
44705;DHT22;30431;48.520;9.046;2022-09-16T04:34:14;12.80;99.90
44705;DHT22;30431;48.520;9.046;2022-09-16T04:36:44;12.80;99.90
44705;DHT22;30431;48.520;9.046;2022-09-16T04:39:11;12.80;99.90
44705;DHT22;30431;48.520;9.046;2022-09-16T04:41:38;12.80;99.90
44705;DHT22;30431;48.520;9.046;2022-09-16T04:44:11;12.70;99.90
44705;DHT22;30431;48.520;9.046;2022-09-16T04:46:38;12.70;99.90
44705;DHT22;30431;48.520;9.046;2022-09-16T04:49:12;12.80;99.90
44705;DHT22;30431;48.520;9.046;2022-09-16T04:51:42;12.80;99.90
44705;DHT22;30431;48.520;9.046;2022-09-16T04:54:14;12.80;99.90
44705;DHT22;30431;48.520;9.046;2022-09-16T04:56:43;12.80;99.90
44705;DHT22;30431;48.520;9.046;2022-09-16T04:59:10;12.70;99.90
44705;DHT22;30431;48.520;9.046;2022-09-16T05:01:38;12.70;99.90
44705;DHT22;30431;48.520;9.046;2022-09-16T05:04:06;12.80;99.90
44705;DHT22;30431;48.520;9.046;2022-09-16T05:06:41;12.80;99.90
44705;DHT22;30431;48.520;9.046;2022-09-16T05:09:11;12.80;99.90
44705;DHT22;30431;48.520;9.046;2022-09-16T05:11:41;12.80;99.90
44705;DHT22;30431;48.520;9.046;2022-09-16T05:14:16;12.80;99.90
44705;DHT22;30431;48.520;9.046;2022-09-16T05:16:44;12.90;99.90
44705;DHT22;30431;48.520;9.046;2022-09-16T05:19:13;13.00;99.90
44705;DHT22;30431;48.520;9.046;2022-09-16T05:21:42;13.10;99.90
44705;DHT22;30431;48.520;9.046;2022-09-16T05:24:11;13.00;99.90
44705;DHT22;30431;48.520;9.046;2022-09-16T05:26:42;13.00;99.90
44705;DHT22;30431;48.520;9.046;2022-09-16T05:29:14;13.00;99.90
44705;DHT22;30431;48.520;9.046;2022-09-16T05:31:42;13.00;99.90
44705;DHT22;30431;48.520;9.046;2022-09-16T05:34:19;13.00;99.90
44705;DHT22;30431;48.520;9.046;2022-09-16T05:36:47;13.10;99.90
44705;DHT22;30431;48.520;9.046;2022-09-16T05:39:18;13.10;99.90
44705;DHT22;30431;48.520;9.046;2022-09-16T05:41:56;13.10;99.90
44705;DHT22;30431;48.520;9.046;2022-09-16T05:44:25;13.10;99.90
44705;DHT22;30431;48.520;9.046;2022-09-16T05:46:52;13.10;99.90
44705;DHT22;30431;48.520;9.046;2022-09-16T05:49:19;13.10;99.90
44705;DHT22;30431;48.520;9.046;2022-09-16T05:51:48;13.20;99.90
44705;DHT22;30431;48.520;9.046;2022-09-16T05:54:19;13.20;99.90
44705;DHT22;30431;48.520;9.046;2022-09-16T05:56:46;13.10;99.90
44705;DHT22;30431;48.520;9.046;2022-09-16T05:59:14;13.20;99.90
44705;DHT22;30431;48.520;9.046;2022-09-16T06:01:42;13.30;99.90
44705;DHT22;30431;48.520;9.046;2022-09-16T06:04:11;13.40;99.90
44705;DHT22;30431;48.520;9.046;2022-09-16T06:06:42;13.50;99.90
44705;DHT22;30431;48.520;9.046;2022-09-16T06:09:19;13.40;99.90
44705;DHT22;30431;48.520;9.046;2022-09-16T06:11:51;13.50;99.90
44705;DHT22;30431;48.520;9.046;2022-09-16T06:14:26;13.50;99.90
44705;DHT22;30431;48.520;9.046;2022-09-16T06:16:54;13.60;99.90
44705;DHT22;30431;48.520;9.046;2022-09-16T06:19:23;13.60;99.90
44705;DHT22;30431;48.520;9.046;2022-09-16T06:21:55;13.70;99.90
44705;DHT22;30431;48.520;9.046;2022-09-16T06:24:22;13.70;99.90
44705;DHT22;30431;48.520;9.046;2022-09-16T06:26:53;13.60;99.90
44705;DHT22;30431;48.520;9.046;2022-09-16T06:29:20;13.60;99.90
44705;DHT22;30431;48.520;9.046;2022-09-16T06:31:50;13.40;99.90
44705;DHT22;30431;48.520;9.046;2022-09-16T06:34:19;13.50;99.90
44705;DHT22;30431;48.520;9.046;2022-09-16T06:36:46;13.50;99.90
44705;DHT22;30431;48.520;9.046;2022-09-16T06:39:14;13.50;99.90
44705;DHT22;30431;48.520;9.046;2022-09-16T06:41:42;13.50;99.90
44705;DHT22;30431;48.520;9.046;2022-09-16T06:44:09;13.50;99.90
44705;DHT22;30431;48.520;9.046;2022-09-16T06:46:37;13.40;99.90
44705;DHT22;30431;48.520;9.046;2022-09-16T06:49:07;13.30;99.90
44705;DHT22;30431;48.520;9.046;2022-09-16T06:51:36;13.40;99.90
44705;DHT22;30431;48.520;9.046;2022-09-16T06:54:09;13.30;99.90
44705;DHT22;30431;48.520;9.046;2022-09-16T06:56:36;13.20;99.90
44705;DHT22;30431;48.520;9.046;2022-09-16T06:59:05;13.30;99.90
44705;DHT22;30431;48.520;9.046;2022-09-16T07:01:39;13.30;99.90
44705;DHT22;30431;48.520;9.046;2022-09-16T07:04:08;13.40;99.90
44705;DHT22;30431;48.520;9.046;2022-09-16T07:06:39;13.40;99.90
44705;DHT22;30431;48.520;9.046;2022-09-16T07:09:26;13.40;99.90
44705;DHT22;30431;48.520;9.046;2022-09-16T07:11:53;13.30;99.90
44705;DHT22;30431;48.520;9.046;2022-09-16T07:14:21;13.20;99.90
44705;DHT22;30431;48.520;9.046;2022-09-16T07:16:50;13.20;99.90
44705;DHT22;30431;48.520;9.046;2022-09-16T07:19:18;13.20;99.90
44705;DHT22;30431;48.520;9.046;2022-09-16T07:21:47;13.20;99.90
44705;DHT22;30431;48.520;9.046;2022-09-16T07:24:14;13.20;99.90
44705;DHT22;30431;48.520;9.046;2022-09-16T07:26:42;13.20;99.90
44705;DHT22;30431;48.520;9.046;2022-09-16T07:29:13;13.20;99.90
44705;DHT22;30431;48.520;9.046;2022-09-16T07:31:40;13.20;99.90
44705;DHT22;30431;48.520;9.046;2022-09-16T07:34:09;13.30;99.90
44705;DHT22;30431;48.520;9.046;2022-09-16T07:36:43;13.30;99.90
44705;DHT22;30431;48.520;9.046;2022-09-16T07:39:12;13.30;99.90
44705;DHT22;30431;48.520;9.046;2022-09-16T07:41:44;13.20;99.90
44705;DHT22;30431;48.520;9.046;2022-09-16T07:44:13;13.20;99.90
44705;DHT22;30431;48.520;9.046;2022-09-16T07:46:43;13.20;99.90
44705;DHT22;30431;48.520;9.046;2022-09-16T07:49:14;13.20;99.90
44705;DHT22;30431;48.520;9.046;2022-09-16T07:51:42;13.40;99.90
44705;DHT22;30431;48.520;9.046;2022-09-16T07:54:17;13.50;99.90
44705;DHT22;30431;48.520;9.046;2022-09-16T07:56:48;13.50;99.90
44705;DHT22;30431;48.520;9.046;2022-09-16T07:59:17;13.60;99.90
44705;DHT22;30431;48.520;9.046;2022-09-16T08:01:48;13.70;99.90
44705;DHT22;30431;48.520;9.046;2022-09-16T08:04:17;13.70;99.90
44705;DHT22;30431;48.520;9.046;2022-09-16T08:07:09;13.70;99.90
44705;DHT22;30431;48.520;9.046;2022-09-16T08:09:39;13.70;99.90
44705;DHT22;30431;48.520;9.046;2022-09-16T08:12:12;13.60;99.90
44705;DHT22;30431;48.520;9.046;2022-09-16T08:14:40;13.50;99.90
44705;DHT22;30431;48.520;9.046;2022-09-16T08:17:07;13.50;99.90
44705;DHT22;30431;48.520;9.046;2022-09-16T08:19:38;13.50;99.90
44705;DHT22;30431;48.520;9.046;2022-09-16T08:22:07;13.50;99.90
44705;DHT22;30431;48.520;9.046;2022-09-16T08:24:34;13.60;99.90
44705;DHT22;30431;48.520;9.046;2022-09-16T08:27:01;13.60;99.90
44705;DHT22;30431;48.520;9.046;2022-09-16T08:29:28;13.70;99.90
44705;DHT22;30431;48.520;9.046;2022-09-16T08:31:55;13.90;99.90
44705;DHT22;30431;48.520;9.046;2022-09-16T08:34:22;14.20;99.90
44705;DHT22;30431;48.520;9.046;2022-09-16T08:36:50;14.40;99.90
44705;DHT22;30431;48.520;9.046;2022-09-16T08:39:17;14.50;99.90
44705;DHT22;30431;48.520;9.046;2022-09-16T08:46:43;15.00;99.90
44705;DHT22;30431;48.520;9.046;2022-09-16T08:49:45;15.00;99.90
44705;DHT22;30431;48.520;9.046;2022-09-16T08:55:03;15.10;99.90
44705;DHT22;30431;48.520;9.046;2022-09-16T08:57:40;15.10;99.90
44705;DHT22;30431;48.520;9.046;2022-09-16T09:00:17;15.10;99.90
44705;DHT22;30431;48.520;9.046;2022-09-16T09:02:56;15.20;99.90
44705;DHT22;30431;48.520;9.046;2022-09-16T09:05:31;15.30;99.90
44705;DHT22;30431;48.520;9.046;2022-09-16T09:08:44;15.40;99.90
44705;DHT22;30431;48.520;9.046;2022-09-16T09:11:37;15.40;99.90
44705;DHT22;30431;48.520;9.046;2022-09-16T09:27:14;15.00;99.90
44705;DHT22;30431;48.520;9.046;2022-09-16T09:29:47;14.90;99.90
44705;DHT22;30431;48.520;9.046;2022-09-16T09:41:11;14.90;99.90
44705;DHT22;30431;48.520;9.046;2022-09-16T09:44:00;14.70;99.90
44705;DHT22;30431;48.520;9.046;2022-09-16T09:46:38;14.70;99.90
44705;DHT22;30431;48.520;9.046;2022-09-16T09:49:21;14.90;99.90
44705;DHT22;30431;48.520;9.046;2022-09-16T09:51:56;15.10;99.90
44705;DHT22;30431;48.520;9.046;2022-09-16T09:54:29;15.20;99.90
44705;DHT22;30431;48.520;9.046;2022-09-16T09:59:42;15.20;99.90
44705;DHT22;30431;48.520;9.046;2022-09-16T10:02:17;15.30;99.90
44705;DHT22;30431;48.520;9.046;2022-09-16T10:04:49;15.40;99.90
44705;DHT22;30431;48.520;9.046;2022-09-16T10:07:21;15.90;99.90
44705;DHT22;30431;48.520;9.046;2022-09-16T10:10:13;16.50;99.90
44705;DHT22;30431;48.520;9.046;2022-09-16T10:12:42;17.30;99.90
44705;DHT22;30431;48.520;9.046;2022-09-16T10:15:20;18.10;99.90
44705;DHT22;30431;48.520;9.046;2022-09-16T10:17:53;18.00;99.90
44705;DHT22;30431;48.520;9.046;2022-09-16T10:20:28;18.00;99.90
44705;DHT22;30431;48.520;9.046;2022-09-16T10:25:35;17.80;99.90
44705;DHT22;30431;48.520;9.046;2022-09-16T10:28:27;18.10;99.90
44705;DHT22;30431;48.520;9.046;2022-09-16T10:30:56;18.20;99.90
44705;DHT22;30431;48.520;9.046;2022-09-16T10:33:44;17.40;99.90
44705;DHT22;30431;48.520;9.046;2022-09-16T10:36:21;16.90;99.90
44705;DHT22;30431;48.520;9.046;2022-09-16T10:38:56;16.70;99.90
44705;DHT22;30431;48.520;9.046;2022-09-16T10:41:41;16.30;99.90
44705;DHT22;30431;48.520;9.046;2022-09-16T10:44:21;16.20;99.90
44705;DHT22;30431;48.520;9.046;2022-09-16T10:46:57;16.00;99.90
44705;DHT22;30431;48.520;9.046;2022-09-16T10:49:38;16.10;99.90
44705;DHT22;30431;48.520;9.046;2022-09-16T10:52:27;16.00;99.90
44705;DHT22;30431;48.520;9.046;2022-09-16T10:55:19;16.00;99.90
44705;DHT22;30431;48.520;9.046;2022-09-16T10:57:51;15.90;99.90
44705;DHT22;30431;48.520;9.046;2022-09-16T11:00:24;15.80;99.90
44705;DHT22;30431;48.520;9.046;2022-09-16T11:17:24;16.10;99.90
44705;DHT22;30431;48.520;9.046;2022-09-16T11:30:27;16.70;99.90
44705;DHT22;30431;48.520;9.046;2022-09-16T11:38:30;17.30;99.90
44705;DHT22;30431;48.520;9.046;2022-09-16T11:41:23;17.50;99.90
44705;DHT22;30431;48.520;9.046;2022-09-16T11:57:28;17.70;99.90
44705;DHT22;30431;48.520;9.046;2022-09-16T12:00:05;18.30;99.90
44705;DHT22;30431;48.520;9.046;2022-09-16T12:05:26;18.50;99.90
44705;DHT22;30431;48.520;9.046;2022-09-16T12:11:17;17.60;99.90
44705;DHT22;30431;48.520;9.046;2022-09-16T12:13:54;17.80;99.90
44705;DHT22;30431;48.520;9.046;2022-09-16T12:17:34;18.10;99.90
44705;DHT22;30431;48.520;9.046;2022-09-16T12:19:36;18.60;99.90
44705;DHT22;30431;48.520;9.046;2022-09-16T12:22:19;18.90;99.90
44705;DHT22;30431;48.520;9.046;2022-09-16T12:25:57;19.10;99.90
44705;DHT22;30431;48.520;9.046;2022-09-16T12:30:51;19.40;99.90
44705;DHT22;30431;48.520;9.046;2022-09-16T12:33:30;19.30;99.90
44705;DHT22;30431;48.520;9.046;2022-09-16T12:36:21;19.10;99.90
44705;DHT22;30431;48.520;9.046;2022-09-16T12:38:57;18.80;99.90
44705;DHT22;30431;48.520;9.046;2022-09-16T12:53:44;16.90;99.90
44705;DHT22;30431;48.520;9.046;2022-09-16T13:01:24;16.70;99.90
44705;DHT22;30431;48.520;9.046;2022-09-16T13:03:58;16.80;99.90
44705;DHT22;30431;48.520;9.046;2022-09-16T13:06:31;16.80;99.90
44705;DHT22;30431;48.520;9.046;2022-09-16T13:12:05;16.50;99.90
44705;DHT22;30431;48.520;9.046;2022-09-16T13:15:00;16.50;99.90
44705;DHT22;30431;48.520;9.046;2022-09-16T13:22:44;17.30;99.90
44705;DHT22;30431;48.520;9.046;2022-09-16T13:30:35;16.70;97.80
44705;DHT22;30431;48.520;9.046;2022-09-16T13:35:42;16.30;96.90
44705;DHT22;30431;48.520;9.046;2022-09-16T13:38:21;16.20;96.90
44705;DHT22;30431;48.520;9.046;2022-09-16T13:40:59;16.10;97.40
44705;DHT22;30431;48.520;9.046;2022-09-16T13:46:12;16.40;97.90
44705;DHT22;30431;48.520;9.046;2022-09-16T13:51:32;16.90;95.40
44705;DHT22;30431;48.520;9.046;2022-09-16T13:54:04;16.80;96.10
44705;DHT22;30431;48.520;9.046;2022-09-16T14:05:27;16.10;97.70
44705;DHT22;30431;48.520;9.046;2022-09-16T14:13:19;17.40;95.70
44705;DHT22;30431;48.520;9.046;2022-09-16T14:15:48;17.70;94.90
44705;DHT22;30431;48.520;9.046;2022-09-16T14:18:39;17.90;94.80
44705;DHT22;30431;48.520;9.046;2022-09-16T14:21:19;18.10;94.20
44705;DHT22;30431;48.520;9.046;2022-09-16T14:23:47;18.00;93.20
44705;DHT22;30431;48.520;9.046;2022-09-16T14:26:19;17.90;94.00
44705;DHT22;30431;48.520;9.046;2022-09-16T14:28:46;18.00;94.50
44705;DHT22;30431;48.520;9.046;2022-09-16T14:31:24;18.10;93.70
44705;DHT22;30431;48.520;9.046;2022-09-16T14:33:59;17.80;93.70
44705;DHT22;30431;48.520;9.046;2022-09-16T14:36:35;17.50;94.80
44705;DHT22;30431;48.520;9.046;2022-09-16T14:39:10;17.20;96.00
44705;DHT22;30431;48.520;9.046;2022-09-16T14:44:32;16.70;95.40
44705;DHT22;30431;48.520;9.046;2022-09-16T14:50:06;16.60;95.90
44705;DHT22;30431;48.520;9.046;2022-09-16T14:52:37;16.50;96.20
44705;DHT22;30431;48.520;9.046;2022-09-16T14:55:18;16.40;95.10
44705;DHT22;30431;48.520;9.046;2022-09-16T14:57:48;16.30;94.50
44705;DHT22;30431;48.520;9.046;2022-09-16T15:00:17;16.20;93.80
44705;DHT22;30431;48.520;9.046;2022-09-16T15:02:59;16.30;94.40
44705;DHT22;30431;48.520;9.046;2022-09-16T15:05:34;16.30;93.80
44705;DHT22;30431;48.520;9.046;2022-09-16T15:08:29;16.10;94.30
44705;DHT22;30431;48.520;9.046;2022-09-16T15:11:02;16.10;94.10
44705;DHT22;30431;48.520;9.046;2022-09-16T15:13:36;16.10;94.10
44705;DHT22;30431;48.520;9.046;2022-09-16T15:16:08;16.30;95.00
44705;DHT22;30431;48.520;9.046;2022-09-16T15:18:43;16.40;94.70
44705;DHT22;30431;48.520;9.046;2022-09-16T15:21:11;16.50;94.90
44705;DHT22;30431;48.520;9.046;2022-09-16T15:23:46;16.60;95.30
44705;DHT22;30431;48.520;9.046;2022-09-16T15:26:17;16.70;95.50
44705;DHT22;30431;48.520;9.046;2022-09-16T15:28:59;16.80;95.40
44705;DHT22;30431;48.520;9.046;2022-09-16T15:31:33;16.90;95.20
44705;DHT22;30431;48.520;9.046;2022-09-16T15:34:24;17.10;93.60
44705;DHT22;30431;48.520;9.046;2022-09-16T15:37:02;17.10;94.30
44705;DHT22;30431;48.520;9.046;2022-09-16T15:39:36;17.00;93.60
44705;DHT22;30431;48.520;9.046;2022-09-16T15:42:15;17.00;93.80
44705;DHT22;30431;48.520;9.046;2022-09-16T15:47:27;16.80;93.60
44705;DHT22;30431;48.520;9.046;2022-09-16T15:50:16;16.80;92.40
44705;DHT22;30431;48.520;9.046;2022-09-16T15:55:39;16.80;92.00
44705;DHT22;30431;48.520;9.046;2022-09-16T16:03:53;16.80;90.50
44705;DHT22;30431;48.520;9.046;2022-09-16T16:12:03;16.50;91.70
44705;DHT22;30431;48.520;9.046;2022-09-16T16:14:31;16.50;92.60
44705;DHT22;30431;48.520;9.046;2022-09-16T16:17:05;16.50;92.10
44705;DHT22;30431;48.520;9.046;2022-09-16T16:19:41;16.50;92.80
44705;DHT22;30431;48.520;9.046;2022-09-16T16:22:10;16.50;92.10
44705;DHT22;30431;48.520;9.046;2022-09-16T16:24:39;16.40;92.30
44705;DHT22;30431;48.520;9.046;2022-09-16T16:27:11;16.40;92.00
44705;DHT22;30431;48.520;9.046;2022-09-16T16:29:40;16.50;92.60
44705;DHT22;30431;48.520;9.046;2022-09-16T16:32:10;16.50;92.10
44705;DHT22;30431;48.520;9.046;2022-09-16T16:34:42;16.40;91.70
44705;DHT22;30431;48.520;9.046;2022-09-16T16:37:11;16.40;92.30
44705;DHT22;30431;48.520;9.046;2022-09-16T16:40:04;16.20;91.90
44705;DHT22;30431;48.520;9.046;2022-09-16T16:42:32;15.90;92.50
44705;DHT22;30431;48.520;9.046;2022-09-16T16:45:05;15.60;92.50
44705;DHT22;30431;48.520;9.046;2022-09-16T16:47:32;15.40;93.00
44705;DHT22;30431;48.520;9.046;2022-09-16T16:49:59;15.30;93.70
44705;DHT22;30431;48.520;9.046;2022-09-16T16:52:27;15.20;93.50
44705;DHT22;30431;48.520;9.046;2022-09-16T16:54:54;15.10;93.70
44705;DHT22;30431;48.520;9.046;2022-09-16T16:57:23;15.00;94.80
44705;DHT22;30431;48.520;9.046;2022-09-16T16:59:53;15.00;95.60
44705;DHT22;30431;48.520;9.046;2022-09-16T17:02:20;14.90;95.50
44705;DHT22;30431;48.520;9.046;2022-09-16T17:04:49;15.00;96.30
44705;DHT22;30431;48.520;9.046;2022-09-16T17:07:19;15.00;97.10
44705;DHT22;30431;48.520;9.046;2022-09-16T17:09:54;14.90;97.30
44705;DHT22;30431;48.520;9.046;2022-09-16T17:12:27;15.00;97.20
44705;DHT22;30431;48.520;9.046;2022-09-16T17:14:58;14.90;96.70
44705;DHT22;30431;48.520;9.046;2022-09-16T17:17:25;14.80;97.20
44705;DHT22;30431;48.520;9.046;2022-09-16T17:20:00;14.60;98.00
44705;DHT22;30431;48.520;9.046;2022-09-16T17:22:29;14.40;98.30
44705;DHT22;30431;48.520;9.046;2022-09-16T17:24:58;14.20;98.50
44705;DHT22;30431;48.520;9.046;2022-09-16T17:27:25;14.00;99.10
44705;DHT22;30431;48.520;9.046;2022-09-16T17:29:55;13.80;99.80
44705;DHT22;30431;48.520;9.046;2022-09-16T17:32:23;13.70;99.90
44705;DHT22;30431;48.520;9.046;2022-09-16T17:34:50;13.50;99.90
44705;DHT22;30431;48.520;9.046;2022-09-16T17:37:20;13.40;99.90
44705;DHT22;30431;48.520;9.046;2022-09-16T17:39:47;13.20;99.90
44705;DHT22;30431;48.520;9.046;2022-09-16T17:42:17;13.00;99.90
44705;DHT22;30431;48.520;9.046;2022-09-16T17:44:47;12.90;99.90
44705;DHT22;30431;48.520;9.046;2022-09-16T17:47:14;12.80;99.90
44705;DHT22;30431;48.520;9.046;2022-09-16T17:49:40;12.70;99.90
44705;DHT22;30431;48.520;9.046;2022-09-16T17:52:07;12.60;99.90
44705;DHT22;30431;48.520;9.046;2022-09-16T17:54:34;12.60;99.90
44705;DHT22;30431;48.520;9.046;2022-09-16T17:57:02;12.40;99.90
44705;DHT22;30431;48.520;9.046;2022-09-16T17:59:31;12.40;99.90
44705;DHT22;30431;48.520;9.046;2022-09-16T18:01:59;12.40;99.90
44705;DHT22;30431;48.520;9.046;2022-09-16T18:04:26;12.30;99.90
44705;DHT22;30431;48.520;9.046;2022-09-16T18:06:56;12.30;99.90
44705;DHT22;30431;48.520;9.046;2022-09-16T18:09:23;12.30;99.90
44705;DHT22;30431;48.520;9.046;2022-09-16T18:11:50;12.30;99.90
44705;DHT22;30431;48.520;9.046;2022-09-16T18:14:20;12.30;99.90
44705;DHT22;30431;48.520;9.046;2022-09-16T18:16:51;12.30;99.90
44705;DHT22;30431;48.520;9.046;2022-09-16T18:19:19;12.30;99.90
44705;DHT22;30431;48.520;9.046;2022-09-16T18:21:48;12.20;99.90
44705;DHT22;30431;48.520;9.046;2022-09-16T18:24:16;12.20;99.90
44705;DHT22;30431;48.520;9.046;2022-09-16T18:26:43;12.10;99.90
44705;DHT22;30431;48.520;9.046;2022-09-16T18:29:11;12.20;99.90
44705;DHT22;30431;48.520;9.046;2022-09-16T18:31:44;12.20;99.90
44705;DHT22;30431;48.520;9.046;2022-09-16T18:34:11;12.20;99.90
44705;DHT22;30431;48.520;9.046;2022-09-16T18:36:39;12.30;99.90
44705;DHT22;30431;48.520;9.046;2022-09-16T18:39:10;12.50;99.90
44705;DHT22;30431;48.520;9.046;2022-09-16T18:41:39;12.70;99.90
44705;DHT22;30431;48.520;9.046;2022-09-16T18:44:17;12.80;99.90
44705;DHT22;30431;48.520;9.046;2022-09-16T18:46:54;12.90;99.90
44705;DHT22;30431;48.520;9.046;2022-09-16T18:49:23;12.90;99.90
44705;DHT22;30431;48.520;9.046;2022-09-16T18:51:53;12.90;99.90
44705;DHT22;30431;48.520;9.046;2022-09-16T18:54:29;12.90;99.90
44705;DHT22;30431;48.520;9.046;2022-09-16T18:56:57;12.90;99.90
44705;DHT22;30431;48.520;9.046;2022-09-16T18:59:32;13.00;99.90
44705;DHT22;30431;48.520;9.046;2022-09-16T19:02:02;13.00;99.90
44705;DHT22;30431;48.520;9.046;2022-09-16T19:04:31;13.00;99.90
44705;DHT22;30431;48.520;9.046;2022-09-16T19:07:02;13.00;99.90
44705;DHT22;30431;48.520;9.046;2022-09-16T19:09:35;13.00;99.90
44705;DHT22;30431;48.520;9.046;2022-09-16T19:12:06;13.00;99.90
44705;DHT22;30431;48.520;9.046;2022-09-16T19:14:36;13.00;99.90
44705;DHT22;30431;48.520;9.046;2022-09-16T19:17:07;13.00;99.90
44705;DHT22;30431;48.520;9.046;2022-09-16T19:19:34;13.00;99.90
44705;DHT22;30431;48.520;9.046;2022-09-16T19:22:01;13.00;99.90
44705;DHT22;30431;48.520;9.046;2022-09-16T19:24:32;12.90;99.90
44705;DHT22;30431;48.520;9.046;2022-09-16T19:26:59;12.80;99.90
44705;DHT22;30431;48.520;9.046;2022-09-16T19:29:28;12.70;99.90
44705;DHT22;30431;48.520;9.046;2022-09-16T19:31:58;12.60;99.90
44705;DHT22;30431;48.520;9.046;2022-09-16T19:34:27;12.40;99.90
44705;DHT22;30431;48.520;9.046;2022-09-16T19:36:55;12.20;99.90
44705;DHT22;30431;48.520;9.046;2022-09-16T19:39:22;12.10;99.90
44705;DHT22;30431;48.520;9.046;2022-09-16T19:41:50;11.90;99.90
44705;DHT22;30431;48.520;9.046;2022-09-16T19:44:19;11.80;99.90
44705;DHT22;30431;48.520;9.046;2022-09-16T19:46:46;11.70;99.90